sensor_id;sensor_type;location;lat;lon;timestamp;P1;durP1;ratioP1;P2;durP2;ratioP2
23232;SDS011;11785;49.500;8.288;2023-03-05T00:01:15;15.75;;;6.70;;
23232;SDS011;11785;49.500;8.288;2023-03-05T00:03:43;16.98;;;6.28;;
23232;SDS011;11785;49.500;8.288;2023-03-05T00:06:09;10.80;;;6.60;;
23232;SDS011;11785;49.500;8.288;2023-03-05T00:08:35;14.13;;;7.05;;
23232;SDS011;11785;49.500;8.288;2023-03-05T00:11:02;15.23;;;6.53;;
23232;SDS011;11785;49.500;8.288;2023-03-05T00:13:30;13.25;;;5.97;;
23232;SDS011;11785;49.500;8.288;2023-03-05T00:15:55;12.25;;;6.20;;
23232;SDS011;11785;49.500;8.288;2023-03-05T00:18:21;11.85;;;5.85;;
23232;SDS011;11785;49.500;8.288;2023-03-05T00:20:47;12.45;;;5.97;;
23232;SDS011;11785;49.500;8.288;2023-03-05T00:23:13;12.98;;;6.22;;
23232;SDS011;11785;49.500;8.288;2023-03-05T00:25:38;14.13;;;6.57;;
23232;SDS011;11785;49.500;8.288;2023-03-05T00:28:05;14.23;;;6.72;;
23232;SDS011;11785;49.500;8.288;2023-03-05T00:30:32;13.43;;;6.10;;
23232;SDS011;11785;49.500;8.288;2023-03-05T00:32:58;14.98;;;6.15;;
23232;SDS011;11785;49.500;8.288;2023-03-05T00:35:24;15.48;;;6.10;;
23232;SDS011;11785;49.500;8.288;2023-03-05T00:37:49;17.05;;;7.13;;
23232;SDS011;11785;49.500;8.288;2023-03-05T00:40:15;12.55;;;5.65;;
23232;SDS011;11785;49.500;8.288;2023-03-05T00:42:41;13.02;;;6.20;;
23232;SDS011;11785;49.500;8.288;2023-03-05T00:45:07;14.80;;;6.22;;
23232;SDS011;11785;49.500;8.288;2023-03-05T00:47:33;11.38;;;5.93;;
23232;SDS011;11785;49.500;8.288;2023-03-05T00:49:59;12.52;;;6.22;;
23232;SDS011;11785;49.500;8.288;2023-03-05T00:52:25;13.88;;;6.00;;
23232;SDS011;11785;49.500;8.288;2023-03-05T00:54:51;11.52;;;6.25;;
23232;SDS011;11785;49.500;8.288;2023-03-05T00:57:17;14.60;;;6.60;;
23232;SDS011;11785;49.500;8.288;2023-03-05T00:59:42;12.10;;;5.72;;
23232;SDS011;11785;49.500;8.288;2023-03-05T01:02:08;13.80;;;7.30;;
23232;SDS011;11785;49.500;8.288;2023-03-05T01:04:34;14.93;;;6.45;;
23232;SDS011;11785;49.500;8.288;2023-03-05T01:07:00;14.13;;;6.72;;
23232;SDS011;11785;49.500;8.288;2023-03-05T01:09:26;15.45;;;7.18;;
23232;SDS011;11785;49.500;8.288;2023-03-05T01:11:52;13.32;;;6.65;;
23232;SDS011;11785;49.500;8.288;2023-03-05T01:14:18;12.35;;;6.88;;
23232;SDS011;11785;49.500;8.288;2023-03-05T01:16:44;15.25;;;7.47;;
23232;SDS011;11785;49.500;8.288;2023-03-05T01:19:10;14.57;;;7.22;;
23232;SDS011;11785;49.500;8.288;2023-03-05T01:21:36;14.20;;;6.90;;
23232;SDS011;11785;49.500;8.288;2023-03-05T01:24:02;14.60;;;6.85;;
23232;SDS011;11785;49.500;8.288;2023-03-05T01:26:28;12.40;;;6.97;;
23232;SDS011;11785;49.500;8.288;2023-03-05T01:28:54;15.20;;;7.13;;
23232;SDS011;11785;49.500;8.288;2023-03-05T01:31:19;14.90;;;7.55;;
23232;SDS011;11785;49.500;8.288;2023-03-05T01:33:45;17.00;;;7.72;;
23232;SDS011;11785;49.500;8.288;2023-03-05T01:36:11;16.85;;;7.05;;
23232;SDS011;11785;49.500;8.288;2023-03-05T01:38:41;14.75;;;7.53;;
23232;SDS011;11785;49.500;8.288;2023-03-05T01:41:08;15.45;;;7.53;;
23232;SDS011;11785;49.500;8.288;2023-03-05T01:43:34;15.07;;;7.18;;
23232;SDS011;11785;49.500;8.288;2023-03-05T01:48:51;16.92;;;8.60;;
23232;SDS011;11785;49.500;8.288;2023-03-05T01:51:23;14.70;;;8.00;;
23232;SDS011;11785;49.500;8.288;2023-03-05T01:53:51;18.23;;;7.65;;
23232;SDS011;11785;49.500;8.288;2023-03-05T01:56:18;15.75;;;8.55;;
23232;SDS011;11785;49.500;8.288;2023-03-05T01:58:44;19.33;;;8.32;;
23232;SDS011;11785;49.500;8.288;2023-03-05T02:01:10;16.33;;;8.40;;
23232;SDS011;11785;49.500;8.288;2023-03-05T02:03:36;15.90;;;7.82;;
23232;SDS011;11785;49.500;8.288;2023-03-05T02:06:02;19.63;;;8.77;;
23232;SDS011;11785;49.500;8.288;2023-03-05T02:08:28;16.02;;;8.40;;
23232;SDS011;11785;49.500;8.288;2023-03-05T02:10:54;16.85;;;7.38;;
23232;SDS011;11785;49.500;8.288;2023-03-05T02:13:24;16.33;;;7.47;;
23232;SDS011;11785;49.500;8.288;2023-03-05T02:15:52;14.95;;;7.80;;
23232;SDS011;11785;49.500;8.288;2023-03-05T02:18:20;15.20;;;7.85;;
23232;SDS011;11785;49.500;8.288;2023-03-05T02:20:47;16.58;;;8.35;;
23232;SDS011;11785;49.500;8.288;2023-03-05T02:23:20;14.93;;;7.97;;
23232;SDS011;11785;49.500;8.288;2023-03-05T02:25:48;15.30;;;7.35;;
23232;SDS011;11785;49.500;8.288;2023-03-05T02:28:15;15.93;;;8.68;;
23232;SDS011;11785;49.500;8.288;2023-03-05T02:30:47;18.88;;;8.77;;
23232;SDS011;11785;49.500;8.288;2023-03-05T02:33:14;21.27;;;9.88;;
23232;SDS011;11785;49.500;8.288;2023-03-05T02:35:41;19.30;;;9.73;;
23232;SDS011;11785;49.500;8.288;2023-03-05T02:38:08;20.75;;;10.23;;
23232;SDS011;11785;49.500;8.288;2023-03-05T02:40:35;21.33;;;10.27;;
23232;SDS011;11785;49.500;8.288;2023-03-05T02:43:00;21.23;;;9.60;;
23232;SDS011;11785;49.500;8.288;2023-03-05T02:45:26;22.92;;;9.02;;
23232;SDS011;11785;49.500;8.288;2023-03-05T02:47:52;20.90;;;9.57;;
23232;SDS011;11785;49.500;8.288;2023-03-05T02:50:19;19.63;;;9.55;;
23232;SDS011;11785;49.500;8.288;2023-03-05T02:52:45;20.40;;;10.60;;
23232;SDS011;11785;49.500;8.288;2023-03-05T02:55:10;21.45;;;10.00;;
23232;SDS011;11785;49.500;8.288;2023-03-05T02:57:36;22.83;;;10.95;;
23232;SDS011;11785;49.500;8.288;2023-03-05T03:00:02;16.77;;;9.35;;
23232;SDS011;11785;49.500;8.288;2023-03-05T03:02:29;18.52;;;9.82;;
23232;SDS011;11785;49.500;8.288;2023-03-05T03:08:16;22.00;;;10.15;;
23232;SDS011;11785;49.500;8.288;2023-03-05T03:10:41;20.35;;;9.85;;
23232;SDS011;11785;49.500;8.288;2023-03-05T03:13:07;22.80;;;10.88;;
23232;SDS011;11785;49.500;8.288;2023-03-05T03:15:32;18.08;;;9.48;;
23232;SDS011;11785;49.500;8.288;2023-03-05T03:17:58;25.45;;;11.38;;
23232;SDS011;11785;49.500;8.288;2023-03-05T03:20:24;21.80;;;11.13;;
23232;SDS011;11785;49.500;8.288;2023-03-05T03:22:49;21.63;;;11.45;;
23232;SDS011;11785;49.500;8.288;2023-03-05T03:25:16;21.15;;;11.50;;
23232;SDS011;11785;49.500;8.288;2023-03-05T03:27:44;23.80;;;11.57;;
23232;SDS011;11785;49.500;8.288;2023-03-05T03:30:10;25.55;;;12.23;;
23232;SDS011;11785;49.500;8.288;2023-03-05T03:32:37;24.38;;;11.85;;
23232;SDS011;11785;49.500;8.288;2023-03-05T03:35:02;23.63;;;12.60;;
23232;SDS011;11785;49.500;8.288;2023-03-05T03:37:28;25.80;;;12.25;;
23232;SDS011;11785;49.500;8.288;2023-03-05T03:39:54;19.63;;;11.10;;
23232;SDS011;11785;49.500;8.288;2023-03-05T03:42:20;23.45;;;10.75;;
23232;SDS011;11785;49.500;8.288;2023-03-05T03:44:47;19.80;;;10.35;;
23232;SDS011;11785;49.500;8.288;2023-03-05T03:47:13;21.73;;;12.02;;
23232;SDS011;11785;49.500;8.288;2023-03-05T03:49:39;20.13;;;10.73;;
23232;SDS011;11785;49.500;8.288;2023-03-05T03:52:04;19.17;;;11.00;;
23232;SDS011;11785;49.500;8.288;2023-03-05T03:54:30;18.10;;;10.07;;
23232;SDS011;11785;49.500;8.288;2023-03-05T03:56:56;22.88;;;10.65;;
23232;SDS011;11785;49.500;8.288;2023-03-05T03:59:21;20.45;;;10.77;;
23232;SDS011;11785;49.500;8.288;2023-03-05T04:01:47;21.48;;;10.23;;
23232;SDS011;11785;49.500;8.288;2023-03-05T04:04:13;21.65;;;10.27;;
23232;SDS011;11785;49.500;8.288;2023-03-05T04:06:39;23.10;;;10.50;;
23232;SDS011;11785;49.500;8.288;2023-03-05T04:09:05;23.05;;;10.85;;
23232;SDS011;11785;49.500;8.288;2023-03-05T04:11:32;21.42;;;11.05;;
23232;SDS011;11785;49.500;8.288;2023-03-05T04:13:58;19.58;;;9.93;;
23232;SDS011;11785;49.500;8.288;2023-03-05T04:16:23;21.92;;;10.88;;
23232;SDS011;11785;49.500;8.288;2023-03-05T04:18:49;21.10;;;10.68;;
23232;SDS011;11785;49.500;8.288;2023-03-05T04:21:15;19.55;;;10.23;;
23232;SDS011;11785;49.500;8.288;2023-03-05T04:23:40;19.70;;;10.43;;
23232;SDS011;11785;49.500;8.288;2023-03-05T04:26:06;22.83;;;10.43;;
23232;SDS011;11785;49.500;8.288;2023-03-05T04:28:31;20.17;;;11.13;;
23232;SDS011;11785;49.500;8.288;2023-03-05T04:30:57;24.27;;;10.80;;
23232;SDS011;11785;49.500;8.288;2023-03-05T04:33:23;24.25;;;10.80;;
23232;SDS011;11785;49.500;8.288;2023-03-05T04:35:49;34.55;;;11.10;;
23232;SDS011;11785;49.500;8.288;2023-03-05T04:38:14;18.45;;;10.35;;
23232;SDS011;11785;49.500;8.288;2023-03-05T04:40:40;20.88;;;10.85;;
23232;SDS011;11785;49.500;8.288;2023-03-05T04:43:06;23.90;;;11.40;;
23232;SDS011;11785;49.500;8.288;2023-03-05T04:45:32;20.92;;;10.75;;
23232;SDS011;11785;49.500;8.288;2023-03-05T04:47:58;20.90;;;10.23;;
23232;SDS011;11785;49.500;8.288;2023-03-05T04:50:24;18.08;;;10.07;;
23232;SDS011;11785;49.500;8.288;2023-03-05T04:52:50;19.45;;;10.30;;
23232;SDS011;11785;49.500;8.288;2023-03-05T04:55:15;19.60;;;10.18;;
23232;SDS011;11785;49.500;8.288;2023-03-05T04:57:42;21.27;;;10.90;;
23232;SDS011;11785;49.500;8.288;2023-03-05T05:00:09;19.55;;;10.70;;
23232;SDS011;11785;49.500;8.288;2023-03-05T05:02:40;22.45;;;10.90;;
23232;SDS011;11785;49.500;8.288;2023-03-05T05:05:07;22.98;;;11.25;;
23232;SDS011;11785;49.500;8.288;2023-03-05T05:07:34;22.27;;;11.48;;
23232;SDS011;11785;49.500;8.288;2023-03-05T05:10:00;21.65;;;11.48;;
23232;SDS011;11785;49.500;8.288;2023-03-05T05:12:29;20.38;;;9.85;;
23232;SDS011;11785;49.500;8.288;2023-03-05T05:14:58;25.75;;;11.63;;
23232;SDS011;11785;49.500;8.288;2023-03-05T05:17:24;22.70;;;11.25;;
23232;SDS011;11785;49.500;8.288;2023-03-05T05:19:50;19.67;;;10.10;;
23232;SDS011;11785;49.500;8.288;2023-03-05T05:22:16;21.58;;;12.07;;
23232;SDS011;11785;49.500;8.288;2023-03-05T05:24:42;18.90;;;10.10;;
23232;SDS011;11785;49.500;8.288;2023-03-05T05:27:07;20.40;;;10.27;;
23232;SDS011;11785;49.500;8.288;2023-03-05T05:29:33;19.40;;;11.10;;
23232;SDS011;11785;49.500;8.288;2023-03-05T05:31:59;22.73;;;11.40;;
23232;SDS011;11785;49.500;8.288;2023-03-05T05:34:24;20.52;;;10.85;;
23232;SDS011;11785;49.500;8.288;2023-03-05T05:36:50;26.42;;;11.85;;
23232;SDS011;11785;49.500;8.288;2023-03-05T05:39:16;22.55;;;11.38;;
23232;SDS011;11785;49.500;8.288;2023-03-05T05:41:42;22.05;;;11.10;;
23232;SDS011;11785;49.500;8.288;2023-03-05T05:44:07;23.05;;;10.65;;
23232;SDS011;11785;49.500;8.288;2023-03-05T05:46:33;20.98;;;11.10;;
23232;SDS011;11785;49.500;8.288;2023-03-05T05:48:59;24.55;;;11.32;;
23232;SDS011;11785;49.500;8.288;2023-03-05T05:51:24;21.83;;;11.13;;
23232;SDS011;11785;49.500;8.288;2023-03-05T05:53:50;20.83;;;10.75;;
23232;SDS011;11785;49.500;8.288;2023-03-05T05:56:16;23.33;;;11.07;;
23232;SDS011;11785;49.500;8.288;2023-03-05T05:58:43;20.15;;;10.43;;
23232;SDS011;11785;49.500;8.288;2023-03-05T06:01:22;22.80;;;11.02;;
23232;SDS011;11785;49.500;8.288;2023-03-05T06:03:50;21.83;;;9.27;;
23232;SDS011;11785;49.500;8.288;2023-03-05T06:06:16;19.95;;;9.43;;
23232;SDS011;11785;49.500;8.288;2023-03-05T06:08:43;18.88;;;10.05;;
23232;SDS011;11785;49.500;8.288;2023-03-05T06:11:09;20.35;;;10.30;;
23232;SDS011;11785;49.500;8.288;2023-03-05T06:13:35;23.23;;;9.57;;
23232;SDS011;11785;49.500;8.288;2023-03-05T06:16:02;18.23;;;9.52;;
23232;SDS011;11785;49.500;8.288;2023-03-05T06:25:11;18.40;;;9.23;;
23232;SDS011;11785;49.500;8.288;2023-03-05T06:27:37;17.33;;;8.80;;
23232;SDS011;11785;49.500;8.288;2023-03-05T06:30:03;23.40;;;9.15;;
23232;SDS011;11785;49.500;8.288;2023-03-05T06:32:30;18.42;;;8.77;;
23232;SDS011;11785;49.500;8.288;2023-03-05T06:34:56;18.30;;;9.48;;
23232;SDS011;11785;49.500;8.288;2023-03-05T06:37:21;19.90;;;9.40;;
23232;SDS011;11785;49.500;8.288;2023-03-05T06:39:47;23.25;;;8.82;;
23232;SDS011;11785;49.500;8.288;2023-03-05T06:42:12;18.45;;;8.35;;
23232;SDS011;11785;49.500;8.288;2023-03-05T06:44:38;15.73;;;7.60;;
23232;SDS011;11785;49.500;8.288;2023-03-05T06:47:05;18.55;;;7.88;;
23232;SDS011;11785;49.500;8.288;2023-03-05T06:49:32;16.27;;;8.43;;
23232;SDS011;11785;49.500;8.288;2023-03-05T06:51:57;16.92;;;8.30;;
23232;SDS011;11785;49.500;8.288;2023-03-05T06:54:23;15.75;;;7.63;;
23232;SDS011;11785;49.500;8.288;2023-03-05T06:56:49;21.30;;;8.48;;
23232;SDS011;11785;49.500;8.288;2023-03-05T06:59:15;16.95;;;8.60;;
23232;SDS011;11785;49.500;8.288;2023-03-05T07:01:41;20.83;;;8.18;;
23232;SDS011;11785;49.500;8.288;2023-03-05T07:04:07;14.70;;;7.85;;
23232;SDS011;11785;49.500;8.288;2023-03-05T07:06:34;14.45;;;7.95;;
23232;SDS011;11785;49.500;8.288;2023-03-05T07:09:03;15.82;;;7.43;;
23232;SDS011;11785;49.500;8.288;2023-03-05T07:11:30;15.40;;;6.88;;
23232;SDS011;11785;49.500;8.288;2023-03-05T07:13:56;17.25;;;7.10;;
23232;SDS011;11785;49.500;8.288;2023-03-05T07:16:24;16.25;;;8.07;;
23232;SDS011;11785;49.500;8.288;2023-03-05T07:18:51;13.82;;;6.63;;
23232;SDS011;11785;49.500;8.288;2023-03-05T07:21:18;15.45;;;6.57;;
23232;SDS011;11785;49.500;8.288;2023-03-05T07:23:46;14.70;;;6.18;;
23232;SDS011;11785;49.500;8.288;2023-03-05T07:26:12;15.77;;;6.35;;
23232;SDS011;11785;49.500;8.288;2023-03-05T07:28:37;12.80;;;6.55;;
23232;SDS011;11785;49.500;8.288;2023-03-05T07:31:04;16.52;;;6.43;;
23232;SDS011;11785;49.500;8.288;2023-03-05T07:33:31;13.05;;;6.32;;
23232;SDS011;11785;49.500;8.288;2023-03-05T07:35:58;11.32;;;6.35;;
23232;SDS011;11785;49.500;8.288;2023-03-05T07:38:25;12.32;;;6.20;;
23232;SDS011;11785;49.500;8.288;2023-03-05T07:40:51;14.68;;;6.30;;
23232;SDS011;11785;49.500;8.288;2023-03-05T07:43:17;12.68;;;6.60;;
23232;SDS011;11785;49.500;8.288;2023-03-05T07:45:43;15.20;;;6.57;;
23232;SDS011;11785;49.500;8.288;2023-03-05T07:48:13;15.45;;;6.60;;
23232;SDS011;11785;49.500;8.288;2023-03-05T07:50:41;12.13;;;6.00;;
23232;SDS011;11785;49.500;8.288;2023-03-05T07:53:07;14.18;;;5.95;;
23232;SDS011;11785;49.500;8.288;2023-03-05T07:55:33;15.32;;;5.88;;
23232;SDS011;11785;49.500;8.288;2023-03-05T07:57:59;14.77;;;6.10;;
23232;SDS011;11785;49.500;8.288;2023-03-05T08:00:24;12.73;;;5.85;;
23232;SDS011;11785;49.500;8.288;2023-03-05T08:02:50;12.43;;;5.60;;
23232;SDS011;11785;49.500;8.288;2023-03-05T08:05:15;13.65;;;5.97;;
23232;SDS011;11785;49.500;8.288;2023-03-05T08:07:41;13.80;;;6.20;;
23232;SDS011;11785;49.500;8.288;2023-03-05T08:10:07;14.38;;;6.25;;
23232;SDS011;11785;49.500;8.288;2023-03-05T08:12:33;11.90;;;6.00;;
23232;SDS011;11785;49.500;8.288;2023-03-05T08:14:59;11.95;;;5.72;;
23232;SDS011;11785;49.500;8.288;2023-03-05T08:17:24;17.35;;;6.57;;
23232;SDS011;11785;49.500;8.288;2023-03-05T08:19:50;15.98;;;6.07;;
23232;SDS011;11785;49.500;8.288;2023-03-05T08:22:16;13.27;;;6.10;;
23232;SDS011;11785;49.500;8.288;2023-03-05T08:24:44;11.32;;;5.80;;
23232;SDS011;11785;49.500;8.288;2023-03-05T08:27:10;11.88;;;5.80;;
23232;SDS011;11785;49.500;8.288;2023-03-05T08:29:35;11.15;;;6.20;;
23232;SDS011;11785;49.500;8.288;2023-03-05T08:32:01;14.27;;;6.75;;
23232;SDS011;11785;49.500;8.288;2023-03-05T08:34:26;11.48;;;6.63;;
23232;SDS011;11785;49.500;8.288;2023-03-05T08:36:52;10.27;;;5.47;;
23232;SDS011;11785;49.500;8.288;2023-03-05T08:39:17;14.77;;;5.70;;
23232;SDS011;11785;49.500;8.288;2023-03-05T08:41:43;10.15;;;5.18;;
23232;SDS011;11785;49.500;8.288;2023-03-05T08:44:08;10.75;;;5.47;;
23232;SDS011;11785;49.500;8.288;2023-03-05T08:46:34;12.30;;;6.47;;
23232;SDS011;11785;49.500;8.288;2023-03-05T08:49:00;8.70;;;4.80;;
23232;SDS011;11785;49.500;8.288;2023-03-05T08:51:26;10.32;;;4.43;;
23232;SDS011;11785;49.500;8.288;2023-03-05T08:53:52;8.50;;;4.40;;
23232;SDS011;11785;49.500;8.288;2023-03-05T08:56:20;8.73;;;4.47;;
23232;SDS011;11785;49.500;8.288;2023-03-05T08:58:45;12.93;;;4.57;;
23232;SDS011;11785;49.500;8.288;2023-03-05T09:01:12;10.90;;;5.22;;
23232;SDS011;11785;49.500;8.288;2023-03-05T09:03:40;10.48;;;4.93;;
23232;SDS011;11785;49.500;8.288;2023-03-05T09:06:06;8.77;;;4.75;;
23232;SDS011;11785;49.500;8.288;2023-03-05T09:08:34;11.60;;;4.78;;
23232;SDS011;11785;49.500;8.288;2023-03-05T09:11:03;10.70;;;5.38;;
23232;SDS011;11785;49.500;8.288;2023-03-05T09:13:31;10.90;;;6.55;;
23232;SDS011;11785;49.500;8.288;2023-03-05T09:15:59;13.65;;;5.95;;
23232;SDS011;11785;49.500;8.288;2023-03-05T09:18:26;11.68;;;5.10;;
23232;SDS011;11785;49.500;8.288;2023-03-05T09:20:52;10.23;;;5.15;;
23232;SDS011;11785;49.500;8.288;2023-03-05T09:23:18;11.55;;;5.25;;
23232;SDS011;11785;49.500;8.288;2023-03-05T09:25:44;11.25;;;4.60;;
23232;SDS011;11785;49.500;8.288;2023-03-05T09:28:09;8.20;;;4.57;;
23232;SDS011;11785;49.500;8.288;2023-03-05T09:30:35;9.98;;;4.93;;
23232;SDS011;11785;49.500;8.288;2023-03-05T09:33:01;10.23;;;4.38;;
23232;SDS011;11785;49.500;8.288;2023-03-05T09:35:27;9.88;;;4.57;;
23232;SDS011;11785;49.500;8.288;2023-03-05T09:37:54;13.20;;;4.63;;
23232;SDS011;11785;49.500;8.288;2023-03-05T09:40:20;11.98;;;4.88;;
23232;SDS011;11785;49.500;8.288;2023-03-05T09:45:36;10.43;;;5.00;;
23232;SDS011;11785;49.500;8.288;2023-03-05T09:48:11;12.05;;;4.63;;
23232;SDS011;11785;49.500;8.288;2023-03-05T09:50:46;11.07;;;4.55;;
23232;SDS011;11785;49.500;8.288;2023-03-05T09:56:09;15.60;;;4.95;;
23232;SDS011;11785;49.500;8.288;2023-03-05T09:58:38;11.32;;;4.47;;
23232;SDS011;11785;49.500;8.288;2023-03-05T10:01:23;11.35;;;4.68;;
23232;SDS011;11785;49.500;8.288;2023-03-05T10:03:57;13.30;;;4.60;;
23232;SDS011;11785;49.500;8.288;2023-03-05T10:06:28;12.50;;;4.72;;
23232;SDS011;11785;49.500;8.288;2023-03-05T10:11:56;11.55;;;4.50;;
23232;SDS011;11785;49.500;8.288;2023-03-05T10:14:26;13.38;;;4.90;;
23232;SDS011;11785;49.500;8.288;2023-03-05T10:17:02;12.10;;;4.82;;
23232;SDS011;11785;49.500;8.288;2023-03-05T10:19:56;12.20;;;5.15;;
23232;SDS011;11785;49.500;8.288;2023-03-05T10:22:29;10.23;;;4.82;;
23232;SDS011;11785;49.500;8.288;2023-03-05T10:44:03;11.35;;;4.20;;
23232;SDS011;11785;49.500;8.288;2023-03-05T10:46:31;9.15;;;4.47;;
23232;SDS011;11785;49.500;8.288;2023-03-05T10:49:21;9.95;;;5.38;;
23232;SDS011;11785;49.500;8.288;2023-03-05T10:52:32;11.18;;;4.45;;
23232;SDS011;11785;49.500;8.288;2023-03-05T10:54:40;13.98;;;4.78;;
23232;SDS011;11785;49.500;8.288;2023-03-05T10:59:56;8.25;;;4.07;;
23232;SDS011;11785;49.500;8.288;2023-03-05T11:02:57;10.13;;;4.65;;
23232;SDS011;11785;49.500;8.288;2023-03-05T11:05:46;11.82;;;5.00;;
23232;SDS011;11785;49.500;8.288;2023-03-05T11:11:07;10.13;;;3.67;;
23232;SDS011;11785;49.500;8.288;2023-03-05T11:16:09;7.45;;;3.42;;
23232;SDS011;11785;49.500;8.288;2023-03-05T11:18:41;8.30;;;3.67;;
23232;SDS011;11785;49.500;8.288;2023-03-05T11:21:11;9.10;;;4.13;;
23232;SDS011;11785;49.500;8.288;2023-03-05T11:26:44;5.47;;;3.38;;
23232;SDS011;11785;49.500;8.288;2023-03-05T11:29:22;11.90;;;4.35;;
23232;SDS011;11785;49.500;8.288;2023-03-05T11:31:54;11.20;;;3.78;;
23232;SDS011;11785;49.500;8.288;2023-03-05T11:34:24;7.43;;;3.53;;
23232;SDS011;11785;49.500;8.288;2023-03-05T11:39:22;4.78;;;2.63;;
23232;SDS011;11785;49.500;8.288;2023-03-05T11:41:50;7.55;;;3.38;;
23232;SDS011;11785;49.500;8.288;2023-03-05T11:44:33;4.82;;;2.95;;
23232;SDS011;11785;49.500;8.288;2023-03-05T11:47:16;7.97;;;3.00;;
23232;SDS011;11785;49.500;8.288;2023-03-05T11:49:49;5.60;;;3.13;;
23232;SDS011;11785;49.500;8.288;2023-03-05T11:52:22;5.47;;;2.90;;
23232;SDS011;11785;49.500;8.288;2023-03-05T11:54:53;5.23;;;2.40;;
23232;SDS011;11785;49.500;8.288;2023-03-05T11:57:23;3.95;;;2.08;;
23232;SDS011;11785;49.500;8.288;2023-03-05T11:59:50;2.70;;;1.83;;
23232;SDS011;11785;49.500;8.288;2023-03-05T12:02:20;3.70;;;1.90;;
23232;SDS011;11785;49.500;8.288;2023-03-05T12:04:49;4.22;;;1.90;;
23232;SDS011;11785;49.500;8.288;2023-03-05T12:07:16;4.65;;;1.50;;
23232;SDS011;11785;49.500;8.288;2023-03-05T12:09:53;4.47;;;2.13;;
23232;SDS011;11785;49.500;8.288;2023-03-05T12:12:24;4.70;;;2.63;;
23232;SDS011;11785;49.500;8.288;2023-03-05T12:23:12;3.70;;;2.03;;
23232;SDS011;11785;49.500;8.288;2023-03-05T12:28:08;4.93;;;2.30;;
23232;SDS011;11785;49.500;8.288;2023-03-05T12:33:28;5.00;;;2.33;;
23232;SDS011;11785;49.500;8.288;2023-03-05T12:38:50;7.03;;;2.28;;
23232;SDS011;11785;49.500;8.288;2023-03-05T12:46:29;5.18;;;2.30;;
23232;SDS011;11785;49.500;8.288;2023-03-05T12:51:50;2.88;;;2.00;;
23232;SDS011;11785;49.500;8.288;2023-03-05T12:54:21;5.15;;;2.08;;
23232;SDS011;11785;49.500;8.288;2023-03-05T12:57:20;3.60;;;2.17;;
23232;SDS011;11785;49.500;8.288;2023-03-05T12:59:52;5.10;;;2.47;;
23232;SDS011;11785;49.500;8.288;2023-03-05T13:02:27;4.40;;;2.53;;
23232;SDS011;11785;49.500;8.288;2023-03-05T13:04:59;3.95;;;2.40;;
23232;SDS011;11785;49.500;8.288;2023-03-05T13:07:29;5.35;;;2.65;;
23232;SDS011;11785;49.500;8.288;2023-03-05T13:09:55;4.05;;;2.45;;
23232;SDS011;11785;49.500;8.288;2023-03-05T13:12:25;2.72;;;2.10;;
23232;SDS011;11785;49.500;8.288;2023-03-05T13:15:05;4.85;;;2.75;;
23232;SDS011;11785;49.500;8.288;2023-03-05T13:17:34;7.50;;;2.83;;
23232;SDS011;11785;49.500;8.288;2023-03-05T13:23:18;5.40;;;2.63;;
23232;SDS011;11785;49.500;8.288;2023-03-05T13:25:55;4.78;;;2.63;;
23232;SDS011;11785;49.500;8.288;2023-03-05T13:28:27;4.75;;;2.72;;
23232;SDS011;11785;49.500;8.288;2023-03-05T13:30:58;3.88;;;2.47;;
23232;SDS011;11785;49.500;8.288;2023-03-05T13:33:32;5.07;;;3.28;;
23232;SDS011;11785;49.500;8.288;2023-03-05T13:35:59;6.40;;;3.17;;
23232;SDS011;11785;49.500;8.288;2023-03-05T13:41:21;6.18;;;2.67;;
23232;SDS011;11785;49.500;8.288;2023-03-05T13:43:51;4.90;;;2.70;;
23232;SDS011;11785;49.500;8.288;2023-03-05T13:46:21;3.33;;;2.60;;
23232;SDS011;11785;49.500;8.288;2023-03-05T13:48:53;5.35;;;2.85;;
23232;SDS011;11785;49.500;8.288;2023-03-05T13:51:19;4.15;;;2.70;;
23232;SDS011;11785;49.500;8.288;2023-03-05T13:53:45;5.30;;;3.22;;
23232;SDS011;11785;49.500;8.288;2023-03-05T13:56:15;6.80;;;2.83;;
23232;SDS011;11785;49.500;8.288;2023-03-05T13:58:44;4.55;;;2.90;;
23232;SDS011;11785;49.500;8.288;2023-03-05T14:07:39;5.90;;;2.70;;
23232;SDS011;11785;49.500;8.288;2023-03-05T14:09:46;7.95;;;3.17;;
23232;SDS011;11785;49.500;8.288;2023-03-05T14:12:33;6.72;;;2.70;;
23232;SDS011;11785;49.500;8.288;2023-03-05T14:20:35;8.57;;;2.92;;
23232;SDS011;11785;49.500;8.288;2023-03-05T14:23:01;6.88;;;3.38;;
23232;SDS011;11785;49.500;8.288;2023-03-05T14:28:55;5.45;;;3.58;;
23232;SDS011;11785;49.500;8.288;2023-03-05T14:31:21;4.28;;;2.90;;
23232;SDS011;11785;49.500;8.288;2023-03-05T14:33:48;4.45;;;2.85;;
23232;SDS011;11785;49.500;8.288;2023-03-05T14:36:19;6.15;;;2.83;;
23232;SDS011;11785;49.500;8.288;2023-03-05T14:38:49;6.25;;;3.33;;
23232;SDS011;11785;49.500;8.288;2023-03-05T14:41:21;4.97;;;3.17;;
23232;SDS011;11785;49.500;8.288;2023-03-05T14:43:58;4.95;;;3.13;;
23232;SDS011;11785;49.500;8.288;2023-03-05T14:46:24;6.05;;;3.05;;
23232;SDS011;11785;49.500;8.288;2023-03-05T14:48:50;6.15;;;3.00;;
23232;SDS011;11785;49.500;8.288;2023-03-05T14:51:16;6.80;;;3.50;;
23232;SDS011;11785;49.500;8.288;2023-03-05T14:53:43;7.13;;;3.10;;
23232;SDS011;11785;49.500;8.288;2023-03-05T14:56:16;6.65;;;2.60;;
23232;SDS011;11785;49.500;8.288;2023-03-05T14:58:46;5.20;;;2.83;;
23232;SDS011;11785;49.500;8.288;2023-03-05T15:01:12;5.53;;;2.50;;
23232;SDS011;11785;49.500;8.288;2023-03-05T15:03:38;5.43;;;2.58;;
23232;SDS011;11785;49.500;8.288;2023-03-05T15:06:05;4.82;;;2.28;;
23232;SDS011;11785;49.500;8.288;2023-03-05T15:08:33;4.75;;;3.22;;
23232;SDS011;11785;49.500;8.288;2023-03-05T15:10:59;4.03;;;2.92;;
23232;SDS011;11785;49.500;8.288;2023-03-05T15:13:25;6.82;;;2.75;;
23232;SDS011;11785;49.500;8.288;2023-03-05T15:15:51;5.45;;;2.92;;
23232;SDS011;11785;49.500;8.288;2023-03-05T15:18:18;6.22;;;2.60;;
23232;SDS011;11785;49.500;8.288;2023-03-05T15:20:45;3.15;;;2.25;;
23232;SDS011;11785;49.500;8.288;2023-03-05T15:23:16;3.88;;;2.35;;
23232;SDS011;11785;49.500;8.288;2023-03-05T15:25:43;3.97;;;2.65;;
23232;SDS011;11785;49.500;8.288;2023-03-05T15:28:08;5.78;;;2.78;;
23232;SDS011;11785;49.500;8.288;2023-03-05T15:30:35;3.55;;;2.67;;
23232;SDS011;11785;49.500;8.288;2023-03-05T15:33:04;3.75;;;2.45;;
23232;SDS011;11785;49.500;8.288;2023-03-05T15:35:31;4.13;;;2.58;;
23232;SDS011;11785;49.500;8.288;2023-03-05T15:37:57;3.63;;;2.30;;
23232;SDS011;11785;49.500;8.288;2023-03-05T15:40:23;4.90;;;2.97;;
23232;SDS011;11785;49.500;8.288;2023-03-05T15:42:51;4.63;;;2.63;;
23232;SDS011;11785;49.500;8.288;2023-03-05T15:45:17;5.95;;;2.22;;
23232;SDS011;11785;49.500;8.288;2023-03-05T15:47:43;5.63;;;2.30;;
23232;SDS011;11785;49.500;8.288;2023-03-05T15:50:09;4.65;;;2.63;;
23232;SDS011;11785;49.500;8.288;2023-03-05T15:52:35;4.95;;;3.30;;
23232;SDS011;11785;49.500;8.288;2023-03-05T15:55:00;4.72;;;3.10;;
23232;SDS011;11785;49.500;8.288;2023-03-05T15:57:26;6.63;;;3.08;;
23232;SDS011;11785;49.500;8.288;2023-03-05T15:59:52;7.88;;;4.20;;
23232;SDS011;11785;49.500;8.288;2023-03-05T16:02:18;6.70;;;3.20;;
23232;SDS011;11785;49.500;8.288;2023-03-05T16:04:44;6.65;;;3.30;;
23232;SDS011;11785;49.500;8.288;2023-03-05T16:07:10;3.92;;;2.78;;
23232;SDS011;11785;49.500;8.288;2023-03-05T16:09:38;6.32;;;2.60;;
23232;SDS011;11785;49.500;8.288;2023-03-05T16:12:09;3.75;;;2.70;;
23232;SDS011;11785;49.500;8.288;2023-03-05T16:14:42;5.85;;;2.70;;
23232;SDS011;11785;49.500;8.288;2023-03-05T16:17:08;3.67;;;2.67;;
23232;SDS011;11785;49.500;8.288;2023-03-05T16:19:34;4.88;;;2.70;;